createdAt,value
2022-09-25T00:00:59.331Z,12.40
2022-09-25T00:03:28.675Z,12.40
2022-09-25T00:06:02.781Z,12.30
2022-09-25T00:08:29.961Z,12.30
2022-09-25T00:10:57.487Z,12.30
2022-09-25T00:13:24.913Z,12.20
2022-09-25T00:15:55.147Z,12.20
2022-09-25T00:18:42.902Z,12.20
2022-09-25T00:21:12.793Z,12.20
2022-09-25T00:23:39.882Z,12.30
2022-09-25T00:26:08.211Z,12.20
2022-09-25T00:28:39.405Z,12.20
2022-09-25T00:31:07.635Z,12.20
2022-09-25T00:33:36.132Z,12.20
2022-09-25T00:36:08.675Z,12.20
2022-09-25T00:38:37.533Z,12.20
2022-09-25T00:41:07.069Z,12.20
2022-09-25T00:43:38.686Z,12.20
2022-09-25T00:46:14.193Z,12.20
2022-09-25T00:48:53.443Z,12.20
2022-09-25T00:51:29.071Z,12.20
2022-09-25T00:54:04.469Z,12.10
2022-09-25T00:56:38.104Z,12.10
2022-09-25T00:59:06.219Z,12.10
2022-09-25T01:01:33.217Z,12.10
2022-09-25T01:04:00.413Z,12.10
2022-09-25T01:06:27.963Z,12.00
2022-09-25T01:08:55.786Z,12.00
2022-09-25T01:11:22.685Z,12.00
2022-09-25T01:13:49.628Z,12.00
2022-09-25T01:16:41.300Z,12.00
2022-09-25T01:19:08.152Z,11.90
2022-09-25T01:21:44.525Z,11.90
2022-09-25T01:24:21.193Z,11.90
2022-09-25T01:27:20.257Z,11.90
2022-09-25T01:29:54.253Z,11.90
2022-09-25T01:32:27.919Z,11.90
2022-09-25T01:35:04.051Z,11.90
2022-09-25T01:37:48.962Z,11.90
2022-09-25T01:40:35.973Z,11.90
2022-09-25T01:43:23.723Z,11.90
2022-09-25T01:45:54.025Z,11.80
2022-09-25T01:48:27.205Z,11.80
2022-09-25T01:51:03.381Z,11.80
2022-09-25T01:53:34.995Z,11.70
2022-09-25T01:56:31.596Z,11.60
2022-09-25T01:59:10.983Z,11.70
2022-09-25T02:01:42.462Z,11.60
2022-09-25T02:04:24.020Z,11.70
2022-09-25T02:06:54.479Z,11.70
2022-09-25T02:09:29.564Z,11.70
2022-09-25T02:12:00.823Z,11.60
2022-09-25T02:14:29.187Z,11.60
2022-09-25T02:16:59.226Z,11.60
2022-09-25T02:19:44.987Z,11.60
2022-09-25T02:22:19.927Z,11.60
2022-09-25T02:25:15.633Z,11.50
2022-09-25T02:27:42.453Z,11.50
2022-09-25T02:30:11.674Z,11.50
2022-09-25T02:32:38.468Z,11.40
2022-09-25T02:35:05.848Z,11.40
2022-09-25T02:37:32.603Z,11.40
2022-09-25T02:40:02.260Z,11.40
2022-09-25T02:42:48.317Z,11.40
2022-09-25T02:45:33.536Z,11.40
2022-09-25T02:48:41.411Z,11.30
2022-09-25T02:51:11.007Z,11.30
2022-09-25T02:53:52.751Z,11.20
2022-09-25T02:56:31.603Z,11.20
2022-09-25T02:59:06.835Z,11.20
2022-09-25T03:01:37.552Z,11.20
2022-09-25T03:04:05.516Z,11.20
2022-09-25T03:06:32.658Z,11.20
2022-09-25T03:09:02.281Z,11.10
2022-09-25T03:11:29.176Z,11.10
2022-09-25T03:14:01.882Z,11.10
2022-09-25T03:16:48.011Z,11.10
2022-09-25T03:19:16.133Z,11.00
2022-09-25T03:21:43.014Z,11.00
2022-09-25T03:24:10.042Z,11.00
2022-09-25T03:26:36.957Z,11.00
2022-09-25T03:29:04.116Z,10.90
2022-09-25T03:31:31.377Z,10.90
2022-09-25T03:33:58.525Z,10.90
2022-09-25T03:36:27.558Z,10.90
2022-09-25T03:38:59.049Z,10.90
2022-09-25T03:41:31.226Z,10.90
2022-09-25T03:43:58.759Z,10.80
2022-09-25T03:46:28.229Z,10.80
2022-09-25T03:48:55.654Z,10.80
2022-09-25T03:51:24.066Z,10.80
2022-09-25T03:53:51.881Z,10.80
2022-09-25T03:56:22.852Z,10.70
2022-09-25T03:58:51.235Z,10.70
2022-09-25T04:01:21.980Z,10.70
2022-09-25T04:03:49.722Z,10.80
2022-09-25T04:06:18.519Z,10.70
2022-09-25T04:08:47.016Z,10.70
2022-09-25T04:11:17.660Z,10.80
2022-09-25T04:13:44.966Z,10.70
2022-09-25T04:16:13.290Z,10.70
2022-09-25T04:18:40.803Z,10.70
2022-09-25T04:21:08.878Z,10.70
2022-09-25T04:23:37.064Z,10.70
2022-09-25T04:26:04.303Z,10.70
2022-09-25T04:28:32.936Z,10.70
2022-09-25T04:31:00.377Z,10.70
2022-09-25T04:33:46.203Z,10.70
2022-09-25T04:36:13.040Z,10.70
2022-09-25T04:38:39.875Z,10.70
2022-09-25T04:41:08.168Z,10.70
2022-09-25T04:43:35.598Z,10.70
2022-09-25T04:46:04.519Z,10.70
2022-09-25T04:48:32.643Z,10.70
2022-09-25T04:50:59.589Z,10.70
2022-09-25T04:53:27.342Z,10.70
2022-09-25T04:55:55.239Z,10.80
2022-09-25T04:58:22.379Z,10.70
2022-09-25T05:00:49.895Z,10.80
2022-09-25T05:03:16.841Z,10.70
2022-09-25T05:05:43.695Z,10.70
2022-09-25T05:08:11.547Z,10.80
2022-09-25T05:10:41.169Z,10.70
2022-09-25T05:13:09.304Z,10.70
2022-09-25T05:15:36.406Z,10.70
2022-09-25T05:18:20.825Z,10.70
2022-09-25T05:20:48.683Z,10.70
2022-09-25T05:23:16.303Z,10.70
2022-09-25T05:25:43.172Z,10.70
2022-09-25T05:28:11.252Z,10.70
2022-09-25T05:30:39.038Z,10.70
2022-09-25T05:33:06.021Z,10.70
2022-09-25T05:35:33.395Z,10.80
2022-09-25T05:38:00.267Z,10.80
2022-09-25T05:40:30.236Z,10.80
2022-09-25T05:42:57.085Z,10.80
2022-09-25T05:45:23.953Z,10.80
2022-09-25T05:48:01.954Z,10.80
2022-09-25T05:50:29.028Z,10.90
2022-09-25T05:53:01.071Z,10.90
2022-09-25T05:55:28.691Z,10.90
2022-09-25T05:58:03.913Z,10.90
2022-09-25T06:00:32.948Z,10.90
2022-09-25T06:03:03.268Z,11.00
2022-09-25T06:05:30.372Z,11.00
2022-09-25T06:07:57.240Z,11.10
2022-09-25T06:10:26.770Z,11.10
2022-09-25T06:12:58.954Z,11.20
2022-09-25T06:15:30.279Z,11.20
2022-09-25T06:17:57.222Z,11.30
2022-09-25T06:20:25.329Z,11.30
2022-09-25T06:22:56.066Z,11.30
2022-09-25T06:25:25.986Z,11.40
2022-09-25T06:27:54.409Z,11.40
2022-09-25T06:30:22.536Z,11.40
2022-09-25T06:32:51.146Z,11.40
2022-09-25T06:35:17.912Z,11.40
2022-09-25T06:37:44.671Z,11.40
2022-09-25T06:40:11.556Z,11.50
2022-09-25T06:42:38.500Z,11.50
2022-09-25T06:45:05.573Z,11.50
2022-09-25T06:47:32.366Z,11.50
2022-09-25T06:49:59.990Z,11.50
2022-09-25T06:52:26.821Z,11.60
2022-09-25T06:54:53.889Z,11.60
2022-09-25T06:57:20.670Z,11.70
2022-09-25T06:59:47.425Z,11.70
2022-09-25T07:02:32.772Z,11.70
2022-09-25T07:05:00.441Z,11.80
2022-09-25T07:07:28.459Z,11.80
2022-09-25T07:09:55.274Z,11.80
2022-09-25T07:12:22.759Z,11.80
2022-09-25T07:14:49.549Z,11.90
2022-09-25T07:17:16.361Z,11.90
2022-09-25T07:19:43.292Z,11.90
2022-09-25T07:22:10.497Z,11.90
2022-09-25T07:24:38.262Z,12.00
2022-09-25T07:27:05.042Z,12.00
2022-09-25T07:29:31.881Z,12.00
2022-09-25T07:32:00.131Z,12.00
2022-09-25T07:34:26.905Z,12.00
2022-09-25T07:36:55.287Z,12.00
2022-09-25T07:39:22.206Z,12.10
2022-09-25T07:41:48.978Z,12.10
2022-09-25T07:44:29.087Z,12.10
2022-09-25T07:46:56.942Z,12.20
2022-09-25T07:49:24.151Z,12.20
2022-09-25T07:51:51.002Z,12.20
2022-09-25T07:54:17.833Z,12.30
2022-09-25T07:56:44.655Z,12.30
2022-09-25T07:59:11.534Z,12.30
2022-09-25T08:01:43.675Z,12.40
2022-09-25T08:04:11.639Z,12.50
2022-09-25T08:06:38.737Z,12.50
2022-09-25T08:09:10.117Z,12.60
2022-09-25T08:11:37.293Z,12.70
2022-09-25T08:14:04.242Z,12.70
2022-09-25T08:16:31.119Z,12.70
2022-09-25T08:18:57.957Z,12.80
2022-09-25T08:21:24.897Z,12.90
2022-09-25T08:23:53.558Z,13.00
2022-09-25T08:26:22.212Z,13.00
2022-09-25T08:28:49.566Z,13.10
2022-09-25T08:31:16.486Z,13.10
2022-09-25T08:33:47.462Z,13.20
2022-09-25T08:36:16.276Z,13.30
2022-09-25T08:38:43.160Z,13.30
2022-09-25T08:41:22.866Z,13.30
2022-09-25T08:44:07.250Z,13.30
2022-09-25T08:47:03.969Z,13.40
2022-09-25T08:49:57.510Z,13.50
2022-09-25T08:52:24.599Z,13.50
2022-09-25T08:54:51.933Z,13.60
2022-09-25T08:57:35.106Z,13.60
2022-09-25T09:00:14.998Z,13.70
2022-09-25T09:02:45.837Z,13.60
2022-09-25T09:05:27.154Z,13.60
2022-09-25T09:07:59.866Z,13.60
2022-09-25T09:10:48.271Z,13.70
2022-09-25T09:13:31.524Z,13.80
2022-09-25T09:16:01.515Z,13.80
2022-09-25T09:18:30.444Z,13.90
2022-09-25T09:21:10.443Z,13.90
2022-09-25T09:24:06.760Z,14.00
2022-09-25T09:26:43.537Z,14.00
2022-09-25T09:29:13.011Z,14.10
2022-09-25T09:32:04.355Z,14.20
2022-09-25T09:35:07.154Z,14.20
2022-09-25T09:38:06.116Z,14.30
2022-09-25T09:40:55.607Z,14.40
2022-09-25T09:43:55.030Z,14.50
2022-09-25T09:46:37.188Z,14.40
2022-09-25T09:49:27.299Z,14.50
2022-09-25T09:52:20.674Z,14.50
2022-09-25T09:54:55.113Z,14.50
2022-09-25T09:57:33.127Z,14.60
2022-09-25T10:00:13.384Z,14.70
2022-09-25T10:03:05.096Z,14.80
2022-09-25T10:05:47.300Z,14.90
2022-09-25T10:08:14.776Z,14.90
2022-09-25T10:10:47.529Z,14.90
2022-09-25T10:13:20.249Z,15.00
2022-09-25T10:15:58.884Z,15.10
2022-09-25T10:18:31.819Z,15.10
2022-09-25T10:21:26.216Z,15.20
2022-09-25T10:23:55.551Z,15.20
2022-09-25T10:26:29.663Z,15.30
2022-09-25T10:28:59.308Z,15.30
2022-09-25T10:31:31.774Z,15.40
2022-09-25T10:34:17.636Z,15.40
2022-09-25T10:36:51.270Z,15.40
2022-09-25T10:39:45.155Z,15.40
2022-09-25T10:42:32.450Z,15.50
2022-09-25T10:44:59.283Z,15.60
2022-09-25T10:47:51.204Z,15.60
2022-09-25T10:50:21.010Z,15.60
2022-09-25T10:52:50.669Z,15.60
2022-09-25T10:55:32.470Z,15.70
2022-09-25T10:58:11.485Z,15.80
2022-09-25T11:00:59.531Z,15.80
2022-09-25T11:03:34.440Z,15.80
2022-09-25T11:06:03.900Z,15.80
2022-09-25T11:08:34.476Z,15.80
2022-09-25T11:11:03.031Z,15.90
2022-09-25T11:13:48.742Z,16.00
2022-09-25T11:16:16.016Z,16.10
2022-09-25T11:18:47.070Z,16.10
2022-09-25T11:21:44.331Z,16.10
2022-09-25T11:24:23.246Z,16.20
2022-09-25T11:26:59.881Z,16.30
2022-09-25T11:29:45.884Z,16.40
2022-09-25T11:32:40.152Z,16.50
2022-09-25T11:35:33.604Z,16.50
2022-09-25T11:38:03.881Z,16.60
2022-09-25T11:41:29.130Z,16.60
2022-09-25T11:44:21.388Z,16.70
2022-09-25T11:47:15.902Z,16.60
2022-09-25T11:49:43.334Z,16.60
2022-09-25T11:52:28.822Z,16.70
2022-09-25T11:55:27.722Z,16.70
2022-09-25T11:58:20.809Z,16.80
2022-09-25T12:01:01.204Z,16.90
2022-09-25T12:03:45.435Z,16.90
2022-09-25T12:06:49.029Z,16.90
2022-09-25T12:09:30.162Z,17.00
2022-09-25T12:12:05.869Z,17.00
2022-09-25T12:14:57.018Z,17.00
2022-09-25T12:17:37.516Z,17.10
2022-09-25T12:20:26.079Z,17.00
2022-09-25T12:23:01.886Z,17.00
2022-09-25T12:25:50.162Z,16.90
2022-09-25T12:28:40.044Z,17.00
2022-09-25T12:31:23.910Z,17.00
2022-09-25T12:34:18.446Z,17.00
2022-09-25T12:37:08.125Z,17.00
2022-09-25T12:40:14.725Z,17.00
2022-09-25T12:43:07.812Z,17.00
2022-09-25T12:45:52.681Z,17.10
2022-09-25T12:48:33.300Z,17.10
2022-09-25T12:51:07.394Z,17.10
2022-09-25T12:53:56.207Z,17.20
2022-09-25T12:56:54.066Z,17.20
2022-09-25T12:59:42.554Z,17.30
2022-09-25T13:02:31.067Z,17.40
2022-09-25T13:05:21.693Z,17.50
2022-09-25T13:08:10.431Z,17.50
2022-09-25T13:10:39.103Z,17.50
2022-09-25T13:13:13.491Z,17.50
2022-09-25T13:15:42.922Z,17.50
2022-09-25T13:18:19.399Z,17.50
2022-09-25T13:21:08.858Z,17.60
2022-09-25T13:23:41.641Z,17.50
2022-09-25T13:26:18.090Z,17.60
2022-09-25T13:29:15.244Z,17.50
2022-09-25T13:31:44.772Z,17.50
2022-09-25T13:34:14.791Z,17.60
2022-09-25T13:36:47.776Z,17.60
2022-09-25T13:39:32.894Z,17.60
2022-09-25T13:42:06.267Z,17.60
2022-09-25T13:44:50.175Z,17.60
2022-09-25T13:47:27.259Z,17.70
2022-09-25T13:50:09.368Z,17.80
2022-09-25T13:52:39.647Z,17.80
2022-09-25T13:55:24.079Z,17.80
2022-09-25T13:57:58.347Z,17.80
2022-09-25T14:00:38.090Z,17.70
2022-09-25T14:03:05.646Z,17.70
2022-09-25T14:05:36.253Z,17.60
2022-09-25T14:08:15.912Z,17.60
2022-09-25T14:10:49.515Z,17.60
2022-09-25T14:13:21.899Z,17.60
2022-09-25T14:15:48.771Z,17.50
2022-09-25T14:18:36.268Z,17.50
2022-09-25T14:21:06.390Z,17.50
2022-09-25T14:23:33.516Z,17.50
2022-09-25T14:26:07.236Z,17.60
2022-09-25T14:28:43.976Z,17.60
2022-09-25T14:31:32.918Z,17.70
2022-09-25T14:34:29.919Z,17.70
2022-09-25T14:37:05.658Z,17.80
2022-09-25T14:39:38.259Z,17.80
2022-09-25T14:42:32.757Z,17.80
2022-09-25T14:45:37.245Z,17.90
2022-09-25T14:48:13.680Z,17.90
2022-09-25T14:50:50.578Z,17.90
2022-09-25T14:53:25.870Z,17.90
2022-09-25T14:55:54.175Z,17.90
2022-09-25T14:58:24.902Z,17.90
2022-09-25T15:01:07.096Z,17.80
2022-09-25T15:03:39.750Z,17.80
2022-09-25T15:06:06.654Z,17.80
2022-09-25T15:08:41.692Z,17.80
2022-09-25T15:11:17.183Z,17.70
2022-09-25T15:13:44.655Z,17.70
2022-09-25T15:16:44.370Z,17.70
2022-09-25T15:19:27.511Z,17.60
2022-09-25T15:21:54.710Z,17.60
2022-09-25T15:24:27.729Z,17.60
2022-09-25T15:27:06.886Z,17.60
2022-09-25T15:29:38.220Z,17.50
2022-09-25T15:32:05.903Z,17.50
2022-09-25T15:34:34.038Z,17.50
2022-09-25T15:37:30.970Z,17.50
2022-09-25T15:40:08.424Z,17.50
2022-09-25T15:42:35.231Z,17.40
2022-09-25T15:45:12.275Z,17.40
2022-09-25T15:47:50.548Z,17.40
2022-09-25T15:50:24.062Z,17.40
2022-09-25T15:53:00.567Z,17.40
2022-09-25T15:55:31.274Z,17.40
2022-09-25T15:58:10.794Z,17.40
2022-09-25T16:00:56.093Z,17.30
2022-09-25T16:03:45.011Z,17.30
2022-09-25T16:06:18.501Z,17.30
2022-09-25T16:08:45.485Z,17.20
2022-09-25T16:11:22.707Z,17.20
2022-09-25T16:13:52.103Z,17.20
2022-09-25T16:16:30.617Z,17.10
2022-09-25T16:19:21.668Z,17.10
2022-09-25T16:21:48.988Z,17.10
2022-09-25T16:24:25.843Z,17.10
2022-09-25T16:27:04.281Z,17.10
2022-09-25T16:29:34.081Z,17.00
2022-09-25T16:32:08.112Z,17.00
2022-09-25T16:34:37.956Z,17.00
2022-09-25T16:37:08.502Z,17.00
2022-09-25T16:39:39.456Z,17.00
2022-09-25T16:42:26.667Z,16.90
2022-09-25T16:45:23.771Z,16.90
2022-09-25T16:47:51.640Z,16.90
2022-09-25T16:50:20.260Z,16.90
2022-09-25T16:52:48.119Z,16.90
2022-09-25T16:55:19.034Z,16.80
2022-09-25T16:57:46.420Z,16.80
2022-09-25T17:00:19.916Z,16.80
2022-09-25T17:02:47.930Z,16.80
2022-09-25T17:05:28.658Z,16.70
2022-09-25T17:08:01.494Z,16.70
2022-09-25T17:10:31.840Z,16.70
2022-09-25T17:13:01.564Z,16.60
2022-09-25T17:15:36.528Z,16.60
2022-09-25T17:18:07.238Z,16.60
2022-09-25T17:20:35.630Z,16.50
2022-09-25T17:23:02.469Z,16.50
2022-09-25T17:25:40.390Z,16.50
2022-09-25T17:28:09.943Z,16.50
2022-09-25T17:30:37.484Z,16.50
2022-09-25T17:33:07.259Z,16.50
2022-09-25T17:35:49.044Z,16.50
2022-09-25T17:38:16.254Z,16.50
2022-09-25T17:40:45.169Z,16.40
2022-09-25T17:43:14.021Z,16.40
2022-09-25T17:45:46.093Z,16.40
2022-09-25T17:48:12.902Z,16.30
2022-09-25T17:50:39.950Z,16.30
2022-09-25T17:53:18.581Z,16.30
2022-09-25T17:55:52.601Z,16.30
2022-09-25T17:58:20.858Z,16.30
2022-09-25T18:00:48.524Z,16.30
2022-09-25T18:03:16.670Z,16.30
2022-09-25T18:05:44.404Z,16.20
2022-09-25T18:08:12.377Z,16.20
2022-09-25T18:10:39.953Z,16.20
2022-09-25T18:13:10.998Z,16.20
2022-09-25T18:15:41.807Z,16.20
2022-09-25T18:18:09.819Z,16.20
2022-09-25T18:20:55.119Z,16.20
2022-09-25T18:23:22.048Z,16.20
2022-09-25T18:25:48.960Z,16.20
2022-09-25T18:28:18.023Z,16.20
2022-09-25T18:30:44.883Z,16.20
2022-09-25T18:33:11.991Z,16.20
2022-09-25T18:35:40.307Z,16.20
2022-09-25T18:38:07.125Z,16.20
2022-09-25T18:40:34.048Z,16.20
2022-09-25T18:43:01.450Z,16.20
2022-09-25T18:45:28.284Z,16.20
2022-09-25T18:47:55.165Z,16.20
2022-09-25T18:50:22.084Z,16.20
2022-09-25T18:52:48.982Z,16.20
2022-09-25T18:55:15.831Z,16.20
2022-09-25T18:57:42.818Z,16.20
2022-09-25T19:00:10.312Z,16.20
2022-09-25T19:02:39.248Z,16.20
2022-09-25T19:05:07.323Z,16.20
2022-09-25T19:07:35.775Z,16.20
2022-09-25T19:10:07.832Z,16.10
2022-09-25T19:12:34.686Z,16.10
2022-09-25T19:15:04.701Z,16.10
2022-09-25T19:17:32.197Z,16.00
2022-09-25T19:19:59.117Z,16.00
2022-09-25T19:22:26.040Z,16.00
2022-09-25T19:24:54.541Z,16.00
2022-09-25T19:27:21.681Z,16.00
2022-09-25T19:29:48.522Z,16.00
2022-09-25T19:32:17.243Z,16.00
2022-09-25T19:34:44.691Z,16.00
2022-09-25T19:37:11.688Z,16.00
2022-09-25T19:39:57.410Z,16.00
2022-09-25T19:42:26.678Z,16.00
2022-09-25T19:44:55.955Z,15.90
2022-09-25T19:47:23.717Z,15.90
2022-09-25T19:49:50.507Z,15.90
2022-09-25T19:52:17.650Z,15.90
2022-09-25T19:54:44.407Z,15.90
2022-09-25T19:57:11.275Z,15.90
2022-09-25T19:59:38.044Z,15.80
2022-09-25T20:02:05.123Z,15.80
2022-09-25T20:04:32.158Z,15.80
2022-09-25T20:06:59.079Z,15.70
2022-09-25T20:09:26.854Z,15.70
2022-09-25T20:11:54.110Z,15.70
2022-09-25T20:14:25.420Z,15.70
2022-09-25T20:16:54.037Z,15.70
2022-09-25T20:19:21.437Z,15.60
2022-09-25T20:21:49.025Z,15.60
2022-09-25T20:24:15.981Z,15.60
2022-09-25T20:26:42.754Z,15.60
2022-09-25T20:29:12.844Z,15.60
2022-09-25T20:31:42.625Z,15.60
2022-09-25T20:34:19.175Z,15.60
2022-09-25T20:36:47.202Z,15.50
2022-09-25T20:39:20.631Z,15.50
2022-09-25T20:41:48.734Z,15.40
2022-09-25T20:44:15.550Z,15.40
2022-09-25T20:46:42.544Z,15.40
2022-09-25T20:49:10.858Z,15.40
2022-09-25T20:51:38.072Z,15.40
2022-09-25T20:57:10.923Z,15.40
2022-09-25T20:59:37.946Z,15.30
2022-09-25T21:02:05.572Z,15.30
2022-09-25T21:04:32.474Z,15.30
2022-09-25T21:06:59.306Z,15.30
2022-09-25T21:09:26.986Z,15.30
2022-09-25T21:11:54.433Z,15.30
2022-09-25T21:14:27.374Z,15.30
2022-09-25T21:16:58.439Z,15.30
2022-09-25T21:19:26.116Z,15.30
2022-09-25T21:21:52.970Z,15.20
2022-09-25T21:24:21.252Z,15.20
2022-09-25T21:26:50.109Z,15.20
2022-09-25T21:29:17.860Z,15.20
2022-09-25T21:31:49.921Z,15.10
2022-09-25T21:34:18.199Z,15.10
2022-09-25T21:36:46.000Z,15.10
2022-09-25T21:39:13.366Z,15.10
2022-09-25T21:41:40.336Z,15.10
2022-09-25T21:44:13.236Z,15.10
2022-09-25T21:46:41.045Z,15.10
2022-09-25T21:49:09.041Z,15.10
2022-09-25T21:51:39.143Z,15.10
2022-09-25T21:54:08.598Z,15.10
2022-09-25T21:56:35.991Z,15.00
2022-09-25T21:59:08.601Z,15.00
2022-09-25T22:01:38.727Z,14.90
2022-09-25T22:04:06.737Z,14.90
2022-09-25T22:06:39.124Z,14.80
2022-09-25T22:09:09.077Z,14.80
2022-09-25T22:11:37.291Z,14.80
2022-09-25T22:14:05.853Z,14.80
2022-09-25T22:16:35.228Z,14.70
2022-09-25T22:19:06.058Z,14.70
2022-09-25T22:21:34.585Z,14.70
2022-09-25T22:24:01.762Z,14.60
2022-09-25T22:26:29.381Z,14.60
2022-09-25T22:28:56.990Z,14.60
2022-09-25T22:31:26.481Z,14.60
2022-09-25T22:33:58.856Z,14.60
2022-09-25T22:36:27.369Z,14.60
2022-09-25T22:38:55.002Z,14.60
2022-09-25T22:41:22.514Z,14.50
2022-09-25T22:43:55.005Z,14.50
2022-09-25T22:46:25.929Z,14.50
2022-09-25T22:48:53.225Z,14.50
2022-09-25T22:51:22.341Z,14.50
2022-09-25T22:53:49.589Z,14.40
2022-09-25T22:56:28.060Z,14.40
2022-09-25T22:58:57.535Z,14.40
2022-09-25T23:01:37.777Z,14.40
2022-09-25T23:04:08.102Z,14.40
2022-09-25T23:06:35.965Z,14.40
2022-09-25T23:09:05.964Z,14.30
2022-09-25T23:11:33.049Z,14.30
2022-09-25T23:14:06.232Z,14.30
2022-09-25T23:16:34.116Z,14.30
2022-09-25T23:19:01.753Z,14.20
2022-09-25T23:21:29.864Z,14.20
2022-09-25T23:24:02.512Z,14.20
2022-09-25T23:26:30.219Z,14.20
2022-09-25T23:28:58.768Z,14.20
2022-09-25T23:31:26.365Z,14.20
2022-09-25T23:33:53.262Z,14.20
2022-09-25T23:36:22.806Z,14.10
2022-09-25T23:38:51.732Z,14.10
2022-09-25T23:41:21.078Z,14.10
2022-09-25T23:43:49.375Z,14.10
2022-09-25T23:46:18.003Z,14.10
2022-09-25T23:48:45.554Z,14.10
2022-09-25T23:51:13.819Z,14.10
2022-09-25T23:53:41.334Z,14.00
2022-09-25T23:56:16.985Z,14.00
2022-09-25T23:58:44.482Z,14.00
